Home > Products > Valid Products > MTR

000
SAUS44 KLCH 021654
MTRP92
METAR KP92 021653Z AUTO VRB06KT 33/26 A3005 RMK AO1 SLP176 P0001
T03280261





000
SAUS44 KLCH 021554
MTRP92
METAR KP92 021553Z AUTO VRB05KT 32/26 A3006 RMK AO1 SLP177 P0001
T03220256





000
SAUS44 KLCH 021454
MTRP92
METAR KP92 021453Z AUTO 15007KT 130V190 32/26 A3004 RMK AO1 SLP173
P0001 60003 T03220256 51010





000
SAUS44 KLCH 021354
MTRP92
METAR KP92 021353Z AUTO VRB05KT 32/26 A3004 RMK AO1 SLP172 P0001
T03170256





000
SAUS44 KLCH 021254
MTRP92
METAR KP92 021253Z AUTO VRB03KT 31/25 A3003 RMK AO1 SLP168 P0001
T03060250





000
SAUS44 KLCH 021154
MTRP92
METAR KP92 021153Z AUTO 00000KT 29/25 A3002 RMK AO1 SLP163 P0001
60007 70023 T02940250 10300 20294 53009





000
SAUS44 KLCH 021056
MTRP92
METAR KP92 021053Z AUTO 00000KT 29/26 A3000 RMK AO1 SLP159 P0001
T02940256





000
SAUS44 KLCH 020957
MTRP92
METAR KP92 020953Z AUTO 00000KT 29/26 A3000 RMK AO1 SLP157 P0001
T02940256





000
SAUS44 KLCH 020857
MTRP92
METAR KP92 020853Z AUTO VRB04KT 29/25 A2999 RMK AO1 SLP154 P0002
60004 T02940250 53001





000
SAUS44 KLCH 020757
MTRP92
METAR KP92 020753Z AUTO VRB03KT 29/25 A2998 RMK AO1 SLP150 P0001
T02940250





000
SAUS44 KLCH 020654
MTRP92
METAR KP92 020653Z AUTO 30/26 A2998 RMK AO1 SLP150 P0001 T03000256





000
SAUS44 KLCH 020554
MTRP92
METAR KP92 020553Z AUTO VRB04KT 30/25 A2999 RMK AO1 SLP153 P0002
60007 T03000250 10300 20283 403330272 57014





000
SAUS44 KLCH 020455
MTRP92
METAR KP92 020453Z AUTO VRB03KT 30/26 A3000 RMK AO1 SLP157 P0001
T03000256





000
SAUS44 KLCH 020354
MTRP92
METAR KP92 020353Z AUTO VRB03KT 29/26 A3001 RMK AO1 SLP163 P0001
T02940261





000
SAUS44 KLCH 020354
MTRP92
METAR KP92 020353Z AUTO VRB03KT 29/26 A3001 RMK AO1 SLP163 P0001
T02940261





000
SAUS44 KLCH 020255
MTRP92
METAR KP92 020253Z AUTO 00000KT 28/25 A3003 RMK AO1 SLP167 P0001
60003 T02830250 51017





000
SAUS44 KLCH 020154
MTRP92
METAR KP92 020153Z AUTO 00000KT 29/26 A3001 RMK AO1 SLP163 P0001
T02890261





000
SAUS44 KLCH 020054
MTRP92
METAR KP92 020053Z AUTO VRB03KT 30/26 A2999 RMK AO1 SLP155 P0001
T03000256





000
SAUS44 KLCH 012354
MTRP92
METAR KP92 012353Z AUTO 13006KT 29/24 A2997 RMK AO1 SLP150 P0001
60005 T02940244 10333 20294 55001





000
SAUS44 KLCH 012254
MTRP92
METAR KP92 012253Z AUTO VRB04KT 31/26 A2996 RMK AO1 SLP143 T03110256





000
SAUS44 KLCH 012154
MTRP92
METAR KP92 012153Z AUTO VRB06KT 32/26 A2996 RMK AO1 SLP145 P0001
T03220256





000
SAUS44 KLCH 012054
MTRP92
METAR KP92 012053Z AUTO VRB05KT 32/27 A2998 RMK AO1 SLP151 P0001
60003 T03220267 56015





000
SAUS44 KLCH 011954
MTRP92
METAR KP92 011953Z AUTO VRB06KT 33/26 A2999 RMK AO1 SLP153 P0001
T03280261





000
SAUS44 KLCH 011854
MTRP92
METAR KP92 011853Z AUTO VRB05G14KT 33/26 A3000 RMK AO1 SLP159 P0001
T03280261





000
SAUS44 KLCH 011754
MTRP92
METAR KP92 011753Z AUTO 17007KT 110V210 33/26 A3002 RMK AO1 SLP166
P0001 60004 T03280256 10328 20278 50001





000
SAUS44 KLCH 011654
MTRP92
METAR KP92 011653Z AUTO VRB06KT 33/26 A3002 RMK AO1 SLP167 P0001
T03280256





000
SAUS44 KLCH 011554
MTRP92
METAR KP92 011553Z AUTO 16008KT 120V210 32/26 A3003 RMK AO1 SLP168
T03170256





000
SAUS44 KLCH 011455
MTRP92
METAR KP92 011453Z AUTO 14007KT 110V180 31/26 A3002 RMK AO1 SLP165
P0001 60002 T03110261 53006





000
SAUS44 KLCH 011354
MTRP92
METAR KP92 011353Z AUTO 12007KT 31/26 A3001 RMK AO1 SLP161 T03060261





000
SAUS44 KLCH 011254
MTRP92
METAR KP92 011253Z AUTO 11003KT 28/26 A3001 RMK AO1 SLP162 P0001
T02830261





000
SAUS44 KLCH 011154
MTRP92
METAR KP92 011153Z AUTO 00000KT 28/26 A3000 RMK AO1 SLP159 60004
70026 T02780256 10300 20272 53012





000
SAUS44 KLCH 011054
MTRP92
METAR KP92 011053Z AUTO 00000KT 28/26 A2999 RMK AO1 SLP155 P0001
T02780256





000
SAUS44 KLCH 010954
MTRP92
METAR KP92 010953Z AUTO 00000KT 28/26 A2998 RMK AO1 SLP151 P0001
T02830261





000
SAUS44 KLCH 010855
MTRP92
METAR KP92 010853Z AUTO 14006KT 29/26 A2997 RMK AO1 SLP147 60002
T02940261 56009





000
SAUS44 KLCH 010756
MTRP92
METAR KP92 010753Z AUTO 13007KT 29/26 A2998 RMK AO1 SLP150 P0001
T02940256





000
SAUS44 KLCH 010654
MTRP92
METAR KP92 010653Z AUTO 13007KT 30/26 A2998 RMK AO1 SLP153 P0001
T03000261





000
SAUS44 KLCH 010554
MTRP92
METAR KP92 010553Z AUTO 13008KT 30/26 A2999 RMK AO1 SLP156 P0001
60006 T03000261 10311 20289 403390250 56008





000
SAUS44 KLCH 010454
MTRP92
METAR KP92 010453Z AUTO 13009G16KT 30/26 A3000 RMK AO1 SLP158
T03000261





000
SAUS44 KLCH 010354
MTRP92
METAR KP92 010353Z AUTO 13007KT 30/26 A3001 RMK AO1 SLP162 P0001
T03000261





000
SAUS44 KLCH 010254
MTRP92
METAR KP92 010253Z AUTO 13006KT 30/26 A3002 RMK AO1 SLP164 P0001
60004 T03000261 53001





000
SAUS44 KLCH 010154
MTRP92
METAR KP92 010153Z AUTO VRB03KT 29/26 A3001 RMK AO1 SLP163 P0001
T02940261





000
SAUS44 KLCH 010154
MTRP92
METAR KP92 010153Z AUTO VRB03KT 29/26 A3001 RMK AO1 SLP163 P0001
T02940261





000
SAUS44 KLCH 010055
MTRP92
METAR KP92 010053Z AUTO 13006KT 31/26 A3001 RMK AO1 SLP162 P0002
T03060256





000
SAUS44 KLCH 312354
MTRP92
METAR KP92 312353Z AUTO 14003KT 31/25 A3001 RMK AO1 SLP163 P0001
60010 T03110250 10339 20311 55000





000
SAUS44 KLCH 312254
MTRP92
METAR KP92 312253Z AUTO 15006KT 32/25 A3001 RMK AO1 SLP163 P0001
T03220250





000
SAUS44 KLCH 312154
MTRP92
METAR KP92 312153Z AUTO 13007KT 33/26 A3001 RMK AO1 SLP162 P0002
T03280256





000
SAUS44 KLCH 312055
MTRP92
METAR KP92 312053Z AUTO VRB04KT 33/25 A3001 RMK AO1 SLP163 P0002
60006 T03330250 58012





000
SAUS44 KLCH 311955
MTRP92
METAR KP92 311953Z AUTO 14008KT 120V180 32/25 A3003 RMK AO1 SLP167
P0002 T03220250





000
SAUS44 KLCH 311855
MTRP92
METAR KP92 311853Z AUTO 33/26 A3004 RMK AO1 SLP173 P0002 T03280256





000
SAUS44 KLCH 311754
MTRP92
METAR KP92 311753Z AUTO 15008G14KT 32/26 A3005 RMK AO1 SLP175 P0002
60006 T03220256 10328 20250 58003





000
SAUS44 KLCH 311654
MTRP92
METAR KP92 311653Z AUTO 14008KT 110V210 32/26 A3006 RMK AO1 SLP180
P0001 T03220256





000
SAUS44 KLCH 311554
MTRP92
METAR KP92 311553Z AUTO 13007KT 32/26 A3006 RMK AO1 SLP180 P0001
T03170261





000
SAUS44 KLCH 311454
MTRP92
METAR KP92 311453Z AUTO 11006KT 30/27 A3006 RMK AO1 SLP178 60002
T03000267 51006





000
SAUS44 KLCH 311355
MTRP92
METAR KP92 311353Z AUTO 00000KT 27/25 A3005 RMK AO1 SLP177 P0001
T02720250





000
SAUS44 KLCH 311255
MTRP92
METAR KP92 311253Z AUTO 00000KT 26/24 A3005 RMK AO1 SLP176 P0001
T02560239





000
SAUS44 KLCH 311154
MTRP92
METAR KP92 311153Z AUTO 00000KT 25/23 A3004 RMK AO1 SLP172 P0001
60004 70006 T02500233 10272 20250 53012





000
SAUS44 KLCH 311054
MTRP92
METAR KP92 311053Z AUTO 00000KT 26/24 A3003 RMK AO1 SLP168 T02560239





000
SAUS44 KLCH 310954
MTRP92
METAR KP92 310953Z AUTO 00000KT 26/24 A3002 RMK AO1 SLP164 P0001
T02610244





000
SAUS44 KLCH 310854
MTRP92
METAR KP92 310853Z AUTO 00000KT 27/25 A3001 RMK AO1 SLP161 P0001
60002 T02670250 53006





000
SAUS44 KLCH 310754
MTRP92
METAR KP92 310753Z AUTO 13005KT 27/25 A3000 RMK AO1 SLP159 T02720250





000
SAUS44 KLCH 310655
MTRP92
METAR KP92 310653Z AUTO 13007KT 27/25 A2999 RMK AO1 SLP156 P0001
T02720250





000
SAUS44 KLCH 310555
MTRP92
METAR KP92 310553Z AUTO 13007KT 27/24 A2999 RMK AO1 SLP155 P0001
60001 T02720244 10272 20256 403000250 56012





000
SAUS44 KLCH 310454
MTRP92
METAR KP92 310453Z AUTO 14005KT 27/24 A3000 RMK AO1 SLP157 T02670244





000
SAUS44 KLCH 310354
MTRP92
METAR KP92 310353Z AUTO 16004KT 27/24 A3001 RMK AO1 SLP162 T02670239





000
SAUS44 KLCH 310254
MTRP92
METAR KP92 310253Z AUTO 00000KT 27/24 A3003 RMK AO1 SLP167 T02670239
50002





000
SAUS44 KLCH 310154
MTRP92
METAR KP92 310153Z AUTO 20007KT 140V230 27/24 A3004 RMK AO1 SLP171
T02670244





000
SAUS44 KLCH 310055
MTRP92
METAR KP92 310053Z AUTO 00000KT 26/24 A3003 RMK AO1 SLP167 T02560239





000
SAUS44 KLCH 302354
MTRP92
METAR KP92 302353Z AUTO 30003KT 26/23 A3002 RMK AO1 SLP165 T02560233
10289 20250 50007





000
SAUS44 KLCH 302255
MTRP92
METAR KP92 302253Z AUTO 29006KT 25/23 A3004 RMK AO1 SLP172 T02500233





000
SAUS44 KLCH 302154
MTRP92
METAR KP92 302153Z AUTO VRB03KT 26/24 A3003 RMK AO1 SLP168 T02610244





000
SAUS44 KLCH 302055
MTRP92
METAR KP92 302053Z AUTO 34004KT 26/24 A3000 RMK AO1 SLP158 T02610244
55004





000
SAUS44 KLCH 301954
MTRP92
METAR KP92 301953Z AUTO 00000KT 27/24 A2999 RMK AO1 SLP156 T02720244





000
SAUS44 KLCH 301855
MTRP92
METAR KP92 301853Z AUTO 00000KT 28/26 A3001 RMK AO1 SLP161 T02780256





000
SAUS44 KLCH 301754
MTRP92
METAR KP92 301753Z AUTO VRB05KT 29/26 A3001 RMK AO1 SLP162 P0001
60001 T02890256 10300 20261 56003





    US Dept of Commerce
    National Oceanic and Atmospheric Administration
    National Weather Service
    1325 East West Highway
    Silver Spring, MD 20910
    Page Author: NWS Internet Services Team
Disclaimer
Information Quality
Credits
Glossary
Privacy Policy
Freedom of Information Act (FOIA)
About Us
Career Opportunities